Perkasie, PA (18944)

3:34 AM EST on March 05, 2015 (GMT -0500)
Perkasie | Change Station
CLOSE
Current Station
Personal Weather Station
Location: Perkasie, PA
Elevation: 436 ft
Nearby Weather Stations
Active Advisory: Winter Storm Warning

Elev 436 ft 40.37 °N, 75.31 °W | Updated 6 seconds ago

Snow
Snow
33.4 °F
Feels Like 27 °F
N
6.9
Wind Variable Wind from NW
Gusts 6.9 mph

Today
High -- | Low -- °F
--% Chance of Precip.
Yesterday
High -- | Low -- °F
Precip. -- in
6:28 AM 5:56 PM
Full, 100% visible
Pressure 29.92 in
Visibility 6.0 miles
Clouds Mostly Cloudy 600 ft
Overcast 2500 ft
Windchill 27 °F
Dew Point 33 °F
Humidity 100%
Rainfall in
Snow Depth Not available.
UV 0 out of 12
Pollen .60 out of 12
Air Quality Not available.
Flu Activity Not available.
SPECI KDYL 050818Z AUTO 30006KT 6SM -SN BR BKN006 OVC025 01/01 A2992 RMK AO2 RAE03SNB03 P0001 T00060006

More Conditions Fewer Conditions

Pressure 29.92 in
Visibility 6.0 miles
Clouds Mostly Cloudy 600 ft
Overcast 2500 ft
Windchill 27 °F
Dew Point 33 °F
Humidity 100%
Rainfall in
Snow Depth Not available.
UV 0 out of 12
Pollen .60 out of 12
Air Quality Not available.
Flu Activity Not available.
SPECI KDYL 050818Z AUTO 30006KT 6SM -SN BR BKN006 OVC025 01/01 A2992 RMK AO2 RAE03SNB03 P0001 T00060006

More Conditions Fewer Conditions

10-Day Weather Forecast

Almanac

Astronomy

Mar. 05, 2015 Rise Set
Actual Time
Civil Twilight
Nautical Twilight
Astronomical Twilight
Moon
Length of Visible Light
Length of Day
Tomorrow will be .
, % of the Moon is Illuminated

Today's Extremes

State Highs State Lows

Community

WunderPhotos

Upload Photos

1,802,704 photos uploaded!

WunderBlogs® & News

Nearby

Air Quality

  Air Quality AQ Index Pollutant
Not available.

Snow Depth

Station Depth Elevation

Earthquake Activity

City Distance Mag. Time & Date
Minimum magnitude displayed is 2.5.

Coastal Water Temperatures

Place Temperature

Nearby Weather Stations

Winter Storm Warning
Statement as of 3:29 AM EST on March 05, 2015

... Winter Storm Warning remains in effect until 7 PM EST this
evening...

* locations... portions of eastern Pennsylvania and central New
Jersey.

* Hazard types... a period of sleet then long duration snow.

* Snow accumulations... 4 to 8 inches.

* Timing... sleet and snow through the pre-dawn hours... then
changing to all snow by dawn... continuing through the early
afternoon... possibly heavy at times.

* Temperatures... in the upper 20s.

* Wind... becoming north and gusting to 20 mph during the day
Thursday.

* Visibility... may lower briefly to one half mile during this
morning into the midday.

* Impacts... widespread and substantial impacts on travel are
expected.

Precautionary/preparedness actions...

This Winter Storm Warning means that significant amounts of snow
are expected. The snow will make travel very hazardous or
impossible.